sensor_id;sensor_type;location;lat;lon;timestamp;pressure;altitude;pressure_sealevel;temperature;humidity
65384;BME280;51986;52.788;41.368;2023-05-20T00:00:40;99795.16;;;14.91;58.97
65384;BME280;51986;52.788;41.368;2023-05-20T00:03:07;99781.81;;;14.55;59.41
65384;BME280;51986;52.788;41.368;2023-05-20T00:05:34;99748.59;;;14.24;59.67
65384;BME280;51986;52.788;41.368;2023-05-20T00:08:01;99763.25;;;14.32;59.82
65384;BME280;51986;52.788;41.368;2023-05-20T00:10:28;99782.06;;;14.18;60.59
65384;BME280;51986;52.788;41.368;2023-05-20T00:12:55;99762.47;;;14.08;60.09
65384;BME280;51986;52.788;41.368;2023-05-20T00:15:22;99795.19;;;14.25;59.88
65384;BME280;51986;52.788;41.368;2023-05-20T00:17:49;99795.13;;;14.28;59.31
65384;BME280;51986;52.788;41.368;2023-05-20T00:20:16;99792.72;;;14.14;59.66
65384;BME280;51986;52.788;41.368;2023-05-20T00:22:43;99793.66;;;14.00;59.63
65384;BME280;51986;52.788;41.368;2023-05-20T00:25:10;99784.16;;;13.76;59.83
65384;BME280;51986;52.788;41.368;2023-05-20T00:27:37;99775.59;;;13.64;60.29
65384;BME280;51986;52.788;41.368;2023-05-20T00:30:06;99786.41;;;13.50;60.65
65384;BME280;51986;52.788;41.368;2023-05-20T00:32:33;99747.38;;;13.24;61.34
65384;BME280;51986;52.788;41.368;2023-05-20T00:35:03;99785.03;;;13.38;60.79
65384;BME280;51986;52.788;41.368;2023-05-20T00:37:30;99796.53;;;13.25;61.45
65384;BME280;51986;52.788;41.368;2023-05-20T00:39:57;99799.53;;;13.30;61.05
65384;BME280;51986;52.788;41.368;2023-05-20T00:42:27;99790.78;;;13.33;60.81
65384;BME280;51986;52.788;41.368;2023-05-20T00:44:54;99775.63;;;13.03;61.49
65384;BME280;51986;52.788;41.368;2023-05-20T00:47:28;99784.63;;;13.09;61.09
65384;BME280;51986;52.788;41.368;2023-05-20T00:49:56;99791.09;;;13.05;60.94
65384;BME280;51986;52.788;41.368;2023-05-20T00:52:24;99796.09;;;12.99;60.33
65384;BME280;51986;52.788;41.368;2023-05-20T00:54:51;99781.97;;;12.72;60.62
65384;BME280;51986;52.788;41.368;2023-05-20T00:57:18;99771.38;;;12.72;60.67
65384;BME280;51986;52.788;41.368;2023-05-20T00:59:46;99792.13;;;12.77;60.77
65384;BME280;51986;52.788;41.368;2023-05-20T01:02:13;99788.75;;;12.73;60.83
65384;BME280;51986;52.788;41.368;2023-05-20T01:04:40;99779.28;;;12.75;60.37
65384;BME280;51986;52.788;41.368;2023-05-20T01:07:07;99811.09;;;12.72;60.75
65384;BME280;51986;52.788;41.368;2023-05-20T01:09:34;99831.06;;;12.80;61.10
65384;BME280;51986;52.788;41.368;2023-05-20T01:12:10;99791.47;;;12.69;60.34
65384;BME280;51986;52.788;41.368;2023-05-20T01:14:50;99812.66;;;13.07;59.97
65384;BME280;51986;52.788;41.368;2023-05-20T01:17:20;99792.28;;;13.00;60.10
65384;BME280;51986;52.788;41.368;2023-05-20T01:19:49;99792.63;;;12.65;60.94
65384;BME280;51986;52.788;41.368;2023-05-20T01:22:16;99771.56;;;12.54;60.75
65384;BME280;51986;52.788;41.368;2023-05-20T01:24:45;99789.19;;;12.68;60.75
65384;BME280;51986;52.788;41.368;2023-05-20T01:27:12;99795.25;;;12.68;60.84
65384;BME280;51986;52.788;41.368;2023-05-20T01:29:41;99782.81;;;12.65;60.34
65384;BME280;51986;52.788;41.368;2023-05-20T01:32:11;99808.88;;;12.67;60.17
65384;BME280;51986;52.788;41.368;2023-05-20T01:34:41;99806.53;;;12.72;59.72
65384;BME280;51986;52.788;41.368;2023-05-20T01:37:09;99820.47;;;12.80;59.75
65384;BME280;51986;52.788;41.368;2023-05-20T01:39:38;99816.63;;;12.88;59.08
65384;BME280;51986;52.788;41.368;2023-05-20T01:42:07;99788.13;;;12.61;59.28
65384;BME280;51986;52.788;41.368;2023-05-20T01:44:35;99805.94;;;12.95;59.01
65384;BME280;51986;52.788;41.368;2023-05-20T01:47:02;99811.38;;;13.19;57.93
65384;BME280;51986;52.788;41.368;2023-05-20T01:49:30;99821.25;;;12.77;58.36
65384;BME280;51986;52.788;41.368;2023-05-20T01:51:57;99809.09;;;12.83;58.43
65384;BME280;51986;52.788;41.368;2023-05-20T01:54:25;99787.97;;;12.76;57.94
65384;BME280;51986;52.788;41.368;2023-05-20T01:56:52;99828.94;;;12.64;58.93
65384;BME280;51986;52.788;41.368;2023-05-20T01:59:21;99825.03;;;12.76;58.25
65384;BME280;51986;52.788;41.368;2023-05-20T02:01:49;99811.59;;;12.59;58.24
65384;BME280;51986;52.788;41.368;2023-05-20T02:04:16;99824.94;;;12.45;58.99
65384;BME280;51986;52.788;41.368;2023-05-20T02:06:44;99809.28;;;12.61;59.16
65384;BME280;51986;52.788;41.368;2023-05-20T02:09:11;99816.94;;;12.52;59.12
65384;BME280;51986;52.788;41.368;2023-05-20T02:11:38;99813.84;;;12.61;59.00
65384;BME280;51986;52.788;41.368;2023-05-20T02:14:05;99836.78;;;12.75;58.73
65384;BME280;51986;52.788;41.368;2023-05-20T02:16:32;99801.22;;;12.76;58.56
65384;BME280;51986;52.788;41.368;2023-05-20T02:19:00;99820.31;;;12.94;58.25
65384;BME280;51986;52.788;41.368;2023-05-20T02:21:27;99847.53;;;12.53;59.24
65384;BME280;51986;52.788;41.368;2023-05-20T02:23:54;99828.84;;;12.75;58.67
65384;BME280;51986;52.788;41.368;2023-05-20T02:26:21;99845.47;;;12.75;58.80
65384;BME280;51986;52.788;41.368;2023-05-20T02:28:48;99831.16;;;12.69;59.72
65384;BME280;51986;52.788;41.368;2023-05-20T02:31:15;99819.41;;;12.74;59.51
65384;BME280;51986;52.788;41.368;2023-05-20T02:33:43;99823.56;;;12.30;60.87
65384;BME280;51986;52.788;41.368;2023-05-20T02:36:11;99819.25;;;12.47;60.38
65384;BME280;51986;52.788;41.368;2023-05-20T02:38:38;99824.03;;;12.62;60.18
65384;BME280;51986;52.788;41.368;2023-05-20T02:41:05;99839.44;;;12.75;60.08
65384;BME280;51986;52.788;41.368;2023-05-20T02:43:32;99820.59;;;12.66;59.76
65384;BME280;51986;52.788;41.368;2023-05-20T02:46:00;99854.53;;;12.78;59.86
65384;BME280;51986;52.788;41.368;2023-05-20T02:48:27;99854.28;;;12.61;60.50
65384;BME280;51986;52.788;41.368;2023-05-20T02:50:54;99856.00;;;12.82;60.82
65384;BME280;51986;52.788;41.368;2023-05-20T02:53:21;99853.59;;;12.95;59.68
65384;BME280;51986;52.788;41.368;2023-05-20T02:55:48;99962.59;;;12.86;60.24
65384;BME280;51986;52.788;41.368;2023-05-20T02:58:16;99876.28;;;12.96;60.39
65384;BME280;51986;52.788;41.368;2023-05-20T03:00:43;99846.66;;;12.71;61.28
65384;BME280;51986;52.788;41.368;2023-05-20T03:03:10;99872.13;;;12.54;62.27
65384;BME280;51986;52.788;41.368;2023-05-20T03:05:37;99851.84;;;12.81;61.25
65384;BME280;51986;52.788;41.368;2023-05-20T03:08:08;99861.38;;;12.72;61.58
65384;BME280;51986;52.788;41.368;2023-05-20T03:10:39;99836.00;;;12.78;61.05
65384;BME280;51986;52.788;41.368;2023-05-20T03:13:07;99836.69;;;12.82;61.71
65384;BME280;51986;52.788;41.368;2023-05-20T03:15:39;99853.19;;;12.97;61.16
65384;BME280;51986;52.788;41.368;2023-05-20T03:18:06;99822.53;;;13.03;61.01
65384;BME280;51986;52.788;41.368;2023-05-20T03:20:35;99841.38;;;13.12;60.92
65384;BME280;51986;52.788;41.368;2023-05-20T03:23:03;99867.28;;;12.86;61.70
65384;BME280;51986;52.788;41.368;2023-05-20T03:25:30;99853.56;;;13.02;61.29
65384;BME280;51986;52.788;41.368;2023-05-20T03:27:58;99849.94;;;12.82;61.33
65384;BME280;51986;52.788;41.368;2023-05-20T03:30:26;99852.16;;;12.87;62.04
65384;BME280;51986;52.788;41.368;2023-05-20T03:32:55;99849.38;;;13.05;61.15
65384;BME280;51986;52.788;41.368;2023-05-20T03:35:22;99847.59;;;12.91;61.82
65384;BME280;51986;52.788;41.368;2023-05-20T03:37:49;99846.28;;;12.69;63.17
65384;BME280;51986;52.788;41.368;2023-05-20T03:40:18;99858.00;;;12.68;62.76
65384;BME280;51986;52.788;41.368;2023-05-20T03:42:45;99839.00;;;12.35;64.75
65384;BME280;51986;52.788;41.368;2023-05-20T03:45:12;99851.78;;;12.44;64.58
65384;BME280;51986;52.788;41.368;2023-05-20T03:47:59;99853.72;;;12.36;65.12
65384;BME280;51986;52.788;41.368;2023-05-20T03:50:27;99827.88;;;12.54;64.35
65384;BME280;51986;52.788;41.368;2023-05-20T03:52:54;99856.06;;;12.75;64.09
65384;BME280;51986;52.788;41.368;2023-05-20T03:55:22;99849.06;;;12.54;64.40
65384;BME280;51986;52.788;41.368;2023-05-20T03:57:49;99825.16;;;12.20;65.26
65384;BME280;51986;52.788;41.368;2023-05-20T04:00:17;99841.28;;;12.33;65.61
65384;BME280;51986;52.788;41.368;2023-05-20T04:02:44;99831.97;;;12.10;66.05
65384;BME280;51986;52.788;41.368;2023-05-20T04:05:15;99848.81;;;12.34;65.27
65384;BME280;51986;52.788;41.368;2023-05-20T04:07:42;99840.84;;;12.38;65.38
65384;BME280;51986;52.788;41.368;2023-05-20T04:10:10;99835.19;;;12.40;64.99
65384;BME280;51986;52.788;41.368;2023-05-20T04:12:37;99831.41;;;12.41;65.00
65384;BME280;51986;52.788;41.368;2023-05-20T04:15:06;99844.41;;;12.69;64.13
65384;BME280;51986;52.788;41.368;2023-05-20T04:17:56;99849.28;;;12.71;63.84
65384;BME280;51986;52.788;41.368;2023-05-20T04:20:24;99855.53;;;12.91;63.50
65384;BME280;51986;52.788;41.368;2023-05-20T04:22:53;99858.97;;;12.88;63.21
65384;BME280;51986;52.788;41.368;2023-05-20T04:25:21;99868.72;;;12.53;64.51
65384;BME280;51986;52.788;41.368;2023-05-20T04:27:49;99870.66;;;12.49;64.88
65384;BME280;51986;52.788;41.368;2023-05-20T04:30:16;99862.25;;;12.58;64.47
65384;BME280;51986;52.788;41.368;2023-05-20T04:32:43;99865.81;;;12.37;64.92
65384;BME280;51986;52.788;41.368;2023-05-20T04:35:11;99875.63;;;12.40;64.88
65384;BME280;51986;52.788;41.368;2023-05-20T04:37:41;99862.06;;;12.83;63.47
65384;BME280;51986;52.788;41.368;2023-05-20T04:40:09;99825.09;;;12.24;64.82
65384;BME280;51986;52.788;41.368;2023-05-20T04:42:37;99863.53;;;12.84;63.62
65384;BME280;51986;52.788;41.368;2023-05-20T04:45:04;99863.59;;;12.77;63.68
65384;BME280;51986;52.788;41.368;2023-05-20T04:47:33;99871.53;;;12.77;63.81
65384;BME280;51986;52.788;41.368;2023-05-20T04:50:00;99835.47;;;12.52;64.15
65384;BME280;51986;52.788;41.368;2023-05-20T04:52:27;99854.94;;;12.73;63.82
65384;BME280;51986;52.788;41.368;2023-05-20T04:54:54;99862.72;;;12.49;64.02
65384;BME280;51986;52.788;41.368;2023-05-20T04:57:21;99851.50;;;12.76;63.66
65384;BME280;51986;52.788;41.368;2023-05-20T04:59:48;99903.81;;;12.61;63.88
65384;BME280;51986;52.788;41.368;2023-05-20T05:02:15;99868.97;;;12.70;63.85
65384;BME280;51986;52.788;41.368;2023-05-20T05:04:42;99879.28;;;12.57;63.96
65384;BME280;51986;52.788;41.368;2023-05-20T05:07:09;99838.72;;;12.22;64.56
65384;BME280;51986;52.788;41.368;2023-05-20T05:09:36;99859.16;;;12.15;65.05
65384;BME280;51986;52.788;41.368;2023-05-20T05:12:04;99862.19;;;12.65;64.19
65384;BME280;51986;52.788;41.368;2023-05-20T05:14:31;99852.25;;;12.76;63.56
65384;BME280;51986;52.788;41.368;2023-05-20T05:16:58;99844.28;;;12.83;62.86
65384;BME280;51986;52.788;41.368;2023-05-20T05:19:25;99857.00;;;12.96;63.14
65384;BME280;51986;52.788;41.368;2023-05-20T05:21:52;99863.78;;;12.59;64.37
65384;BME280;51986;52.788;41.368;2023-05-20T05:24:19;99869.09;;;12.55;64.40
65384;BME280;51986;52.788;41.368;2023-05-20T05:26:46;99860.53;;;12.82;63.90
65384;BME280;51986;52.788;41.368;2023-05-20T05:29:13;99885.28;;;12.65;64.80
65384;BME280;51986;52.788;41.368;2023-05-20T05:31:40;99881.03;;;12.74;64.17
65384;BME280;51986;52.788;41.368;2023-05-20T05:34:07;99868.25;;;12.62;64.16
65384;BME280;51986;52.788;41.368;2023-05-20T05:36:37;99882.63;;;12.65;64.54
65384;BME280;51986;52.788;41.368;2023-05-20T05:39:05;99861.81;;;13.11;63.13
65384;BME280;51986;52.788;41.368;2023-05-20T05:41:34;99859.06;;;13.19;62.44
65384;BME280;51986;52.788;41.368;2023-05-20T05:44:03;99874.69;;;13.09;62.88
65384;BME280;51986;52.788;41.368;2023-05-20T05:46:30;99881.91;;;13.05;63.13
65384;BME280;51986;52.788;41.368;2023-05-20T05:48:57;99903.88;;;13.40;62.18
65384;BME280;51986;52.788;41.368;2023-05-20T05:51:26;99857.97;;;13.16;62.53
65384;BME280;51986;52.788;41.368;2023-05-20T05:53:53;99853.34;;;13.24;62.35
65384;BME280;51986;52.788;41.368;2023-05-20T05:56:20;99846.50;;;13.26;61.63
65384;BME280;51986;52.788;41.368;2023-05-20T05:58:47;99855.53;;;12.91;62.76
65384;BME280;51986;52.788;41.368;2023-05-20T06:01:15;99869.31;;;13.17;62.59
65384;BME280;51986;52.788;41.368;2023-05-20T06:03:42;99875.97;;;13.32;62.62
65384;BME280;51986;52.788;41.368;2023-05-20T06:06:09;99883.66;;;13.53;61.76
65384;BME280;51986;52.788;41.368;2023-05-20T06:08:37;99894.44;;;14.00;60.51
65384;BME280;51986;52.788;41.368;2023-05-20T06:11:05;99863.34;;;14.31;59.04
65384;BME280;51986;52.788;41.368;2023-05-20T06:13:32;99841.00;;;14.29;58.80
65384;BME280;51986;52.788;41.368;2023-05-20T06:15:59;99872.19;;;14.21;59.12
65384;BME280;51986;52.788;41.368;2023-05-20T06:18:26;99854.84;;;14.63;57.47
65384;BME280;51986;52.788;41.368;2023-05-20T06:20:57;99878.69;;;15.10;56.78
65384;BME280;51986;52.788;41.368;2023-05-20T06:23:25;99865.34;;;15.14;56.08
65384;BME280;51986;52.788;41.368;2023-05-20T06:26:00;99860.31;;;15.20;55.90
65384;BME280;51986;52.788;41.368;2023-05-20T06:28:28;99882.47;;;15.13;54.80
65384;BME280;51986;52.788;41.368;2023-05-20T06:30:56;99864.72;;;15.06;54.69
65384;BME280;51986;52.788;41.368;2023-05-20T06:33:26;99868.22;;;15.63;53.64
65384;BME280;51986;52.788;41.368;2023-05-20T06:35:57;99849.47;;;15.50;53.33
65384;BME280;51986;52.788;41.368;2023-05-20T06:38:24;99861.16;;;15.73;52.94
65384;BME280;51986;52.788;41.368;2023-05-20T06:40:52;99847.56;;;16.03;52.54
65384;BME280;51986;52.788;41.368;2023-05-20T06:43:19;99852.69;;;15.78;52.39
65384;BME280;51986;52.788;41.368;2023-05-20T06:46:06;99859.03;;;15.84;52.00
65384;BME280;51986;52.788;41.368;2023-05-20T06:48:40;99867.06;;;16.16;51.44
65384;BME280;51986;52.788;41.368;2023-05-20T06:51:07;99840.50;;;15.97;51.20
65384;BME280;51986;52.788;41.368;2023-05-20T06:53:35;99833.03;;;16.57;49.62
65384;BME280;51986;52.788;41.368;2023-05-20T06:56:02;99854.09;;;16.35;49.87
65384;BME280;51986;52.788;41.368;2023-05-20T06:58:31;99859.75;;;16.37;49.52
65384;BME280;51986;52.788;41.368;2023-05-20T07:00:58;99842.97;;;16.24;49.06
65384;BME280;51986;52.788;41.368;2023-05-20T07:03:26;99857.41;;;16.06;49.57
65384;BME280;51986;52.788;41.368;2023-05-20T07:05:53;99853.88;;;15.93;49.82
65384;BME280;51986;52.788;41.368;2023-05-20T07:08:20;99838.34;;;15.75;50.08
65384;BME280;51986;52.788;41.368;2023-05-20T07:10:47;99850.22;;;16.03;49.61
65384;BME280;51986;52.788;41.368;2023-05-20T07:13:18;99860.53;;;15.85;49.09
65384;BME280;51986;52.788;41.368;2023-05-20T07:15:46;99852.75;;;15.94;48.47
65384;BME280;51986;52.788;41.368;2023-05-20T07:18:14;99861.41;;;15.62;49.39
65384;BME280;51986;52.788;41.368;2023-05-20T07:20:45;99847.00;;;15.96;48.54
65384;BME280;51986;52.788;41.368;2023-05-20T07:23:25;99838.34;;;15.75;48.86
65384;BME280;51986;52.788;41.368;2023-05-20T07:25:53;99842.84;;;15.94;48.07
65384;BME280;51986;52.788;41.368;2023-05-20T07:28:21;99853.44;;;16.31;47.78
65384;BME280;51986;52.788;41.368;2023-05-20T07:30:48;99845.00;;;16.00;47.33
65384;BME280;51986;52.788;41.368;2023-05-20T07:33:25;99848.72;;;16.38;46.65
65384;BME280;51986;52.788;41.368;2023-05-20T07:35:52;99859.00;;;16.53;46.57
65384;BME280;51986;52.788;41.368;2023-05-20T07:38:20;99860.75;;;16.59;46.80
65384;BME280;51986;52.788;41.368;2023-05-20T07:40:55;99859.69;;;16.24;46.71
65384;BME280;51986;52.788;41.368;2023-05-20T07:43:23;99873.72;;;16.41;46.11
65384;BME280;51986;52.788;41.368;2023-05-20T07:45:50;99881.03;;;16.69;46.41
65384;BME280;51986;52.788;41.368;2023-05-20T07:48:17;99881.06;;;16.53;46.27
65384;BME280;51986;52.788;41.368;2023-05-20T07:50:44;99870.53;;;16.79;45.50
65384;BME280;51986;52.788;41.368;2023-05-20T07:53:12;99853.50;;;16.11;46.62
65384;BME280;51986;52.788;41.368;2023-05-20T07:55:39;99874.97;;;16.69;45.65
65384;BME280;51986;52.788;41.368;2023-05-20T07:58:06;99871.13;;;16.70;45.18
65384;BME280;51986;52.788;41.368;2023-05-20T08:00:34;99879.53;;;16.68;45.65
65384;BME280;51986;52.788;41.368;2023-05-20T08:03:04;99880.78;;;16.64;45.01
65384;BME280;51986;52.788;41.368;2023-05-20T08:05:44;99850.84;;;17.18;44.72
65384;BME280;51986;52.788;41.368;2023-05-20T08:08:11;99834.47;;;17.19;43.89
65384;BME280;51986;52.788;41.368;2023-05-20T08:10:49;99864.16;;;17.47;43.40
65384;BME280;51986;52.788;41.368;2023-05-20T08:13:17;99839.22;;;17.12;44.23
65384;BME280;51986;52.788;41.368;2023-05-20T08:15:44;99848.28;;;17.14;44.14
65384;BME280;51986;52.788;41.368;2023-05-20T08:18:13;99847.41;;;16.76;44.72
65384;BME280;51986;52.788;41.368;2023-05-20T08:20:40;99842.06;;;17.46;43.40
65384;BME280;51986;52.788;41.368;2023-05-20T08:23:08;99846.69;;;17.97;43.26
65384;BME280;51986;52.788;41.368;2023-05-20T08:25:35;99848.41;;;17.65;43.10
65384;BME280;51986;52.788;41.368;2023-05-20T08:28:03;99836.47;;;17.57;43.41
65384;BME280;51986;52.788;41.368;2023-05-20T08:30:32;99848.19;;;17.72;43.10
65384;BME280;51986;52.788;41.368;2023-05-20T08:33:00;99814.69;;;17.59;43.31
65384;BME280;51986;52.788;41.368;2023-05-20T08:35:29;99873.50;;;17.68;43.52
65384;BME280;51986;52.788;41.368;2023-05-20T08:37:57;99838.59;;;17.88;42.84
65384;BME280;51986;52.788;41.368;2023-05-20T08:40:25;99853.00;;;17.78;42.90
65384;BME280;51986;52.788;41.368;2023-05-20T08:42:52;99875.94;;;18.39;41.49
65384;BME280;51986;52.788;41.368;2023-05-20T08:45:22;99856.88;;;18.62;41.73
65384;BME280;51986;52.788;41.368;2023-05-20T08:47:51;99864.56;;;18.60;41.58
65384;BME280;51986;52.788;41.368;2023-05-20T08:50:18;99862.69;;;18.48;41.42
65384;BME280;51986;52.788;41.368;2023-05-20T08:52:46;99840.53;;;18.47;41.14
65384;BME280;51986;52.788;41.368;2023-05-20T08:55:17;99840.41;;;18.86;40.54
65384;BME280;51986;52.788;41.368;2023-05-20T08:57:44;99853.38;;;19.31;40.17
65384;BME280;51986;52.788;41.368;2023-05-20T09:00:14;99822.81;;;19.10;40.07
65384;BME280;51986;52.788;41.368;2023-05-20T09:02:44;99831.47;;;18.80;40.72
65384;BME280;51986;52.788;41.368;2023-05-20T09:05:11;99862.97;;;18.97;40.14
65384;BME280;51986;52.788;41.368;2023-05-20T09:07:38;99842.00;;;18.96;40.75
65384;BME280;51986;52.788;41.368;2023-05-20T09:10:05;99842.06;;;18.70;39.97
65384;BME280;51986;52.788;41.368;2023-05-20T09:12:33;99841.91;;;18.52;40.46
65384;BME280;51986;52.788;41.368;2023-05-20T09:15:00;99849.66;;;19.07;39.91
65384;BME280;51986;52.788;41.368;2023-05-20T09:17:27;99877.38;;;19.22;40.10
65384;BME280;51986;52.788;41.368;2023-05-20T09:19:54;99879.63;;;18.89;40.67
65384;BME280;51986;52.788;41.368;2023-05-20T09:22:25;99855.03;;;18.72;40.65
65384;BME280;51986;52.788;41.368;2023-05-20T09:24:52;99866.19;;;19.14;39.72
65384;BME280;51986;52.788;41.368;2023-05-20T09:27:21;99861.38;;;18.87;40.33
65384;BME280;51986;52.788;41.368;2023-05-20T09:29:48;99858.09;;;18.48;40.64
65384;BME280;51986;52.788;41.368;2023-05-20T09:32:15;99859.41;;;18.66;40.55
65384;BME280;51986;52.788;41.368;2023-05-20T09:34:43;99860.94;;;18.89;40.75
65384;BME280;51986;52.788;41.368;2023-05-20T09:37:13;99856.44;;;18.64;40.75
65384;BME280;51986;52.788;41.368;2023-05-20T09:39:54;99880.44;;;18.29;41.35
65384;BME280;51986;52.788;41.368;2023-05-20T09:42:24;99875.84;;;18.30;41.16
65384;BME280;51986;52.788;41.368;2023-05-20T09:44:52;99847.19;;;18.78;39.69
65384;BME280;51986;52.788;41.368;2023-05-20T09:47:20;99873.53;;;19.23;39.10
65384;BME280;51986;52.788;41.368;2023-05-20T09:49:47;99855.03;;;19.38;39.04
65384;BME280;51986;52.788;41.368;2023-05-20T09:52:16;99833.16;;;19.08;39.20
65384;BME280;51986;52.788;41.368;2023-05-20T09:54:48;99841.81;;;19.12;39.06
65384;BME280;51986;52.788;41.368;2023-05-20T09:57:15;99882.44;;;19.20;38.49
65384;BME280;51986;52.788;41.368;2023-05-20T09:59:43;99857.78;;;19.03;38.45
65384;BME280;51986;52.788;41.368;2023-05-20T10:02:11;99898.38;;;18.76;38.89
65384;BME280;51986;52.788;41.368;2023-05-20T10:04:44;99848.78;;;18.75;39.15
65384;BME280;51986;52.788;41.368;2023-05-20T10:10:13;99841.22;;;18.95;38.78
65384;BME280;51986;52.788;41.368;2023-05-20T10:21:31;99851.22;;;20.28;35.63
65384;BME280;51986;52.788;41.368;2023-05-20T10:24:06;99868.47;;;20.18;36.68
65384;BME280;51986;52.788;41.368;2023-05-20T10:26:42;99864.09;;;20.61;35.29
65384;BME280;51986;52.788;41.368;2023-05-20T10:29:16;99843.38;;;20.98;34.88
65384;BME280;51986;52.788;41.368;2023-05-20T10:31:47;99843.63;;;21.19;33.74
65384;BME280;51986;52.788;41.368;2023-05-20T10:34:16;99836.88;;;21.33;33.72
65384;BME280;51986;52.788;41.368;2023-05-20T10:36:56;99856.63;;;21.02;34.49
65384;BME280;51986;52.788;41.368;2023-05-20T10:39:28;99857.66;;;19.91;36.07
65384;BME280;51986;52.788;41.368;2023-05-20T10:42:08;99862.28;;;20.67;35.17
65384;BME280;51986;52.788;41.368;2023-05-20T10:44:42;99835.34;;;20.80;34.82
65384;BME280;51986;52.788;41.368;2023-05-20T10:47:10;99834.41;;;21.01;34.36
65384;BME280;51986;52.788;41.368;2023-05-20T10:49:43;99853.47;;;20.58;35.64
65384;BME280;51986;52.788;41.368;2023-05-20T10:52:12;99835.34;;;20.89;34.35
65384;BME280;51986;52.788;41.368;2023-05-20T10:54:54;99839.25;;;21.40;33.97
65384;BME280;51986;52.788;41.368;2023-05-20T10:57:24;99852.16;;;20.99;34.75
65384;BME280;51986;52.788;41.368;2023-05-20T10:59:51;99851.50;;;20.12;35.69
65384;BME280;51986;52.788;41.368;2023-05-20T11:02:21;99847.84;;;20.83;34.76
65384;BME280;51986;52.788;41.368;2023-05-20T11:04:48;99838.16;;;20.95;35.30
65384;BME280;51986;52.788;41.368;2023-05-20T11:07:26;99852.50;;;20.06;36.45
65384;BME280;51986;52.788;41.368;2023-05-20T11:09:54;99859.50;;;20.03;36.02
65384;BME280;51986;52.788;41.368;2023-05-20T11:12:23;99868.75;;;19.80;37.06
65384;BME280;51986;52.788;41.368;2023-05-20T11:14:50;99865.97;;;20.33;36.49
65384;BME280;51986;52.788;41.368;2023-05-20T11:17:18;99874.31;;;20.35;36.38
65384;BME280;51986;52.788;41.368;2023-05-20T11:19:46;99865.34;;;20.11;36.68
65384;BME280;51986;52.788;41.368;2023-05-20T11:22:13;99871.13;;;20.18;36.97
65384;BME280;51986;52.788;41.368;2023-05-20T11:24:40;99859.69;;;20.18;36.93
65384;BME280;51986;52.788;41.368;2023-05-20T11:27:07;99859.97;;;20.11;36.54
65384;BME280;51986;52.788;41.368;2023-05-20T11:29:35;99860.03;;;20.57;35.63
65384;BME280;51986;52.788;41.368;2023-05-20T11:32:02;99847.34;;;20.39;36.21
65384;BME280;51986;52.788;41.368;2023-05-20T11:34:36;99850.97;;;20.54;35.86
65384;BME280;51986;52.788;41.368;2023-05-20T11:37:08;99843.22;;;20.93;34.90
65384;BME280;51986;52.788;41.368;2023-05-20T11:39:36;99839.59;;;21.23;34.54
65384;BME280;51986;52.788;41.368;2023-05-20T11:42:03;99830.31;;;21.34;33.78
65384;BME280;51986;52.788;41.368;2023-05-20T11:44:31;99834.88;;;21.61;31.12
65384;BME280;51986;52.788;41.368;2023-05-20T11:46:59;99844.28;;;21.89;30.89
65384;BME280;51986;52.788;41.368;2023-05-20T11:49:27;99810.44;;;21.83;31.09
65384;BME280;51986;52.788;41.368;2023-05-20T11:51:55;99813.00;;;21.35;31.93
65384;BME280;51986;52.788;41.368;2023-05-20T11:54:23;99826.47;;;22.01;31.46
65384;BME280;51986;52.788;41.368;2023-05-20T11:56:53;99811.25;;;21.32;33.38
65384;BME280;51986;52.788;41.368;2023-05-20T11:59:22;99836.66;;;21.12;33.53
65384;BME280;51986;52.788;41.368;2023-05-20T12:01:50;99841.59;;;20.86;33.85
65384;BME280;51986;52.788;41.368;2023-05-20T12:04:17;99836.97;;;20.59;33.66
65384;BME280;51986;52.788;41.368;2023-05-20T12:06:44;99843.63;;;21.10;34.04
65384;BME280;51986;52.788;41.368;2023-05-20T12:09:11;99838.38;;;21.34;33.18
65384;BME280;51986;52.788;41.368;2023-05-20T12:11:39;99829.50;;;21.00;33.50
65384;BME280;51986;52.788;41.368;2023-05-20T12:14:08;99856.94;;;20.86;33.92
65384;BME280;51986;52.788;41.368;2023-05-20T12:16:37;99818.19;;;20.96;33.45
65384;BME280;51986;52.788;41.368;2023-05-20T12:19:04;99837.41;;;20.94;34.09
65384;BME280;51986;52.788;41.368;2023-05-20T12:21:31;99829.47;;;21.18;33.24
65384;BME280;51986;52.788;41.368;2023-05-20T12:23:58;99843.94;;;21.21;33.27
65384;BME280;51986;52.788;41.368;2023-05-20T12:26:27;99825.91;;;21.12;32.83
65384;BME280;51986;52.788;41.368;2023-05-20T12:28:55;99819.13;;;20.74;33.51
65384;BME280;51986;52.788;41.368;2023-05-20T12:31:23;99836.78;;;20.53;34.61
65384;BME280;51986;52.788;41.368;2023-05-20T12:33:50;99841.75;;;20.64;34.47
65384;BME280;51986;52.788;41.368;2023-05-20T12:36:17;99826.66;;;20.21;35.00
65384;BME280;51986;52.788;41.368;2023-05-20T12:38:44;99832.97;;;19.87;35.60
65384;BME280;51986;52.788;41.368;2023-05-20T12:41:11;99832.41;;;20.01;35.53
65384;BME280;51986;52.788;41.368;2023-05-20T12:43:38;99835.56;;;19.68;36.34
65384;BME280;51986;52.788;41.368;2023-05-20T12:46:05;99814.78;;;19.41;36.13
65384;BME280;51986;52.788;41.368;2023-05-20T12:48:32;99833.41;;;19.23;36.52
65384;BME280;51986;52.788;41.368;2023-05-20T12:50:59;99834.94;;;19.64;36.56
65384;BME280;51986;52.788;41.368;2023-05-20T12:53:26;99841.53;;;19.41;36.40
65384;BME280;51986;52.788;41.368;2023-05-20T12:55:53;99828.16;;;19.41;36.49
65384;BME280;51986;52.788;41.368;2023-05-20T12:58:20;99837.84;;;19.48;36.60
65384;BME280;51986;52.788;41.368;2023-05-20T13:00:47;99822.84;;;18.97;37.02
65384;BME280;51986;52.788;41.368;2023-05-20T13:03:14;99838.28;;;19.15;37.49
65384;BME280;51986;52.788;41.368;2023-05-20T13:05:42;99836.13;;;18.88;37.45
65384;BME280;51986;52.788;41.368;2023-05-20T13:08:09;99840.09;;;18.84;37.80